sensor_id;sensor_type;location;lat;lon;timestamp;P1;durP1;ratioP1;P2;durP2;ratioP2
11034;SDS011;5571;48.110;-1.706;2023-02-15T00:00:19;34.40;;;26.30;;
11034;SDS011;5571;48.110;-1.706;2023-02-15T00:02:45;34.53;;;25.80;;
11034;SDS011;5571;48.110;-1.706;2023-02-15T00:05:10;33.53;;;24.50;;
11034;SDS011;5571;48.110;-1.706;2023-02-15T00:07:36;35.33;;;24.33;;
11034;SDS011;5571;48.110;-1.706;2023-02-15T00:10:02;33.13;;;23.67;;
11034;SDS011;5571;48.110;-1.706;2023-02-15T00:12:28;35.43;;;23.37;;
11034;SDS011;5571;48.110;-1.706;2023-02-15T00:14:54;34.73;;;23.50;;
11034;SDS011;5571;48.110;-1.706;2023-02-15T00:17:20;38.33;;;24.97;;
11034;SDS011;5571;48.110;-1.706;2023-02-15T00:19:46;32.80;;;23.40;;
11034;SDS011;5571;48.110;-1.706;2023-02-15T00:22:11;35.17;;;23.93;;
11034;SDS011;5571;48.110;-1.706;2023-02-15T00:24:37;32.43;;;23.57;;
11034;SDS011;5571;48.110;-1.706;2023-02-15T00:27:03;29.90;;;22.13;;
11034;SDS011;5571;48.110;-1.706;2023-02-15T00:29:29;30.40;;;23.23;;
11034;SDS011;5571;48.110;-1.706;2023-02-15T00:31:54;33.03;;;23.67;;
11034;SDS011;5571;48.110;-1.706;2023-02-15T00:34:24;28.97;;;21.50;;
11034;SDS011;5571;48.110;-1.706;2023-02-15T00:36:51;35.10;;;23.47;;
11034;SDS011;5571;48.110;-1.706;2023-02-15T00:39:17;33.50;;;22.53;;
11034;SDS011;5571;48.110;-1.706;2023-02-15T00:41:44;31.43;;;22.90;;
11034;SDS011;5571;48.110;-1.706;2023-02-15T00:44:11;32.93;;;25.07;;
11034;SDS011;5571;48.110;-1.706;2023-02-15T00:46:37;38.77;;;26.33;;
11034;SDS011;5571;48.110;-1.706;2023-02-15T00:49:03;38.97;;;25.70;;
11034;SDS011;5571;48.110;-1.706;2023-02-15T00:51:29;35.60;;;25.90;;
11034;SDS011;5571;48.110;-1.706;2023-02-15T00:53:55;36.80;;;25.20;;
11034;SDS011;5571;48.110;-1.706;2023-02-15T00:56:21;31.50;;;23.33;;
11034;SDS011;5571;48.110;-1.706;2023-02-15T00:58:47;32.83;;;23.00;;
11034;SDS011;5571;48.110;-1.706;2023-02-15T01:01:13;30.53;;;22.90;;
11034;SDS011;5571;48.110;-1.706;2023-02-15T01:03:41;27.70;;;22.13;;
11034;SDS011;5571;48.110;-1.706;2023-02-15T01:06:07;29.67;;;21.57;;
11034;SDS011;5571;48.110;-1.706;2023-02-15T01:08:33;31.33;;;21.40;;
11034;SDS011;5571;48.110;-1.706;2023-02-15T01:11:10;27.70;;;21.23;;
11034;SDS011;5571;48.110;-1.706;2023-02-15T01:13:38;30.03;;;22.00;;
11034;SDS011;5571;48.110;-1.706;2023-02-15T01:16:04;32.30;;;23.47;;
11034;SDS011;5571;48.110;-1.706;2023-02-15T01:18:30;30.00;;;21.83;;
11034;SDS011;5571;48.110;-1.706;2023-02-15T01:20:57;32.60;;;22.93;;
11034;SDS011;5571;48.110;-1.706;2023-02-15T01:23:22;31.30;;;22.07;;
11034;SDS011;5571;48.110;-1.706;2023-02-15T01:25:48;27.30;;;21.37;;
11034;SDS011;5571;48.110;-1.706;2023-02-15T01:28:14;30.30;;;21.50;;
11034;SDS011;5571;48.110;-1.706;2023-02-15T01:30:40;28.10;;;20.43;;
11034;SDS011;5571;48.110;-1.706;2023-02-15T01:33:06;30.63;;;21.93;;
11034;SDS011;5571;48.110;-1.706;2023-02-15T01:35:32;28.30;;;20.40;;
11034;SDS011;5571;48.110;-1.706;2023-02-15T01:37:57;28.27;;;20.73;;
11034;SDS011;5571;48.110;-1.706;2023-02-15T01:40:23;28.77;;;20.67;;
11034;SDS011;5571;48.110;-1.706;2023-02-15T01:42:50;25.73;;;19.77;;
11034;SDS011;5571;48.110;-1.706;2023-02-15T01:45:21;28.43;;;20.93;;
11034;SDS011;5571;48.110;-1.706;2023-02-15T01:50:17;25.23;;;20.17;;
11034;SDS011;5571;48.110;-1.706;2023-02-15T01:55:57;28.50;;;20.47;;
11034;SDS011;5571;48.110;-1.706;2023-02-15T01:58:27;32.37;;;20.93;;
11034;SDS011;5571;48.110;-1.706;2023-02-15T02:00:54;32.20;;;21.23;;
11034;SDS011;5571;48.110;-1.706;2023-02-15T02:03:42;31.93;;;22.47;;
11034;SDS011;5571;48.110;-1.706;2023-02-15T02:06:19;29.50;;;21.37;;
11034;SDS011;5571;48.110;-1.706;2023-02-15T02:08:45;27.60;;;20.13;;
11034;SDS011;5571;48.110;-1.706;2023-02-15T02:11:12;27.63;;;20.07;;
11034;SDS011;5571;48.110;-1.706;2023-02-15T02:13:42;29.10;;;20.97;;
11034;SDS011;5571;48.110;-1.706;2023-02-15T02:16:11;26.47;;;20.67;;
11034;SDS011;5571;48.110;-1.706;2023-02-15T02:21:23;27.33;;;20.37;;
11034;SDS011;5571;48.110;-1.706;2023-02-15T02:35:41;28.07;;;20.10;;
11034;SDS011;5571;48.110;-1.706;2023-02-15T02:49:43;26.23;;;20.17;;
11034;SDS011;5571;48.110;-1.706;2023-02-15T02:55:00;32.60;;;20.10;;
11034;SDS011;5571;48.110;-1.706;2023-02-15T02:57:28;26.30;;;19.53;;
11034;SDS011;5571;48.110;-1.706;2023-02-15T02:59:56;27.00;;;19.50;;
11034;SDS011;5571;48.110;-1.706;2023-02-15T03:02:29;29.50;;;19.10;;
11034;SDS011;5571;48.110;-1.706;2023-02-15T03:05:00;26.70;;;20.27;;
11034;SDS011;5571;48.110;-1.706;2023-02-15T03:07:31;27.77;;;18.90;;
11034;SDS011;5571;48.110;-1.706;2023-02-15T03:09:58;28.53;;;19.80;;
11034;SDS011;5571;48.110;-1.706;2023-02-15T03:17:34;26.70;;;20.33;;
11034;SDS011;5571;48.110;-1.706;2023-02-15T03:20:07;32.90;;;20.10;;
11034;SDS011;5571;48.110;-1.706;2023-02-15T03:22:40;31.20;;;22.00;;
11034;SDS011;5571;48.110;-1.706;2023-02-15T03:27:49;29.77;;;19.43;;
11034;SDS011;5571;48.110;-1.706;2023-02-15T03:30:20;28.10;;;20.27;;
11034;SDS011;5571;48.110;-1.706;2023-02-15T03:32:48;27.87;;;20.57;;
11034;SDS011;5571;48.110;-1.706;2023-02-15T03:35:15;27.97;;;20.00;;
11034;SDS011;5571;48.110;-1.706;2023-02-15T03:37:41;27.37;;;20.33;;
11034;SDS011;5571;48.110;-1.706;2023-02-15T03:43:49;28.53;;;19.63;;
11034;SDS011;5571;48.110;-1.706;2023-02-15T03:46:08;27.80;;;19.60;;
11034;SDS011;5571;48.110;-1.706;2023-02-15T03:48:45;28.07;;;19.23;;
11034;SDS011;5571;48.110;-1.706;2023-02-15T03:51:42;28.17;;;19.13;;
11034;SDS011;5571;48.110;-1.706;2023-02-15T03:54:15;26.47;;;19.70;;
11034;SDS011;5571;48.110;-1.706;2023-02-15T03:57:18;29.97;;;19.80;;
11034;SDS011;5571;48.110;-1.706;2023-02-15T04:00:06;26.00;;;18.97;;
11034;SDS011;5571;48.110;-1.706;2023-02-15T04:05:36;27.33;;;19.77;;
11034;SDS011;5571;48.110;-1.706;2023-02-15T04:08:02;28.73;;;20.10;;
11034;SDS011;5571;48.110;-1.706;2023-02-15T04:10:28;22.60;;;18.53;;
11034;SDS011;5571;48.110;-1.706;2023-02-15T04:13:12;23.67;;;18.67;;
11034;SDS011;5571;48.110;-1.706;2023-02-15T04:15:38;25.13;;;18.27;;
11034;SDS011;5571;48.110;-1.706;2023-02-15T04:18:22;32.37;;;19.13;;
11034;SDS011;5571;48.110;-1.706;2023-02-15T04:21:07;27.53;;;19.77;;
11034;SDS011;5571;48.110;-1.706;2023-02-15T04:23:51;27.93;;;19.37;;
11034;SDS011;5571;48.110;-1.706;2023-02-15T04:26:35;28.80;;;18.80;;
11034;SDS011;5571;48.110;-1.706;2023-02-15T04:29:01;27.77;;;19.23;;
11034;SDS011;5571;48.110;-1.706;2023-02-15T04:31:27;26.00;;;19.23;;
11034;SDS011;5571;48.110;-1.706;2023-02-15T04:33:52;25.40;;;18.63;;
11034;SDS011;5571;48.110;-1.706;2023-02-15T04:36:18;29.27;;;18.93;;
11034;SDS011;5571;48.110;-1.706;2023-02-15T04:38:43;25.30;;;18.50;;
11034;SDS011;5571;48.110;-1.706;2023-02-15T04:41:09;26.73;;;18.43;;
11034;SDS011;5571;48.110;-1.706;2023-02-15T04:43:37;26.33;;;18.53;;
11034;SDS011;5571;48.110;-1.706;2023-02-15T04:46:02;25.63;;;18.07;;
11034;SDS011;5571;48.110;-1.706;2023-02-15T04:48:28;25.67;;;17.60;;
11034;SDS011;5571;48.110;-1.706;2023-02-15T04:50:54;24.67;;;18.90;;
11034;SDS011;5571;48.110;-1.706;2023-02-15T04:53:20;27.70;;;18.80;;
11034;SDS011;5571;48.110;-1.706;2023-02-15T04:55:45;25.07;;;18.57;;
11034;SDS011;5571;48.110;-1.706;2023-02-15T04:58:11;23.27;;;18.13;;
11034;SDS011;5571;48.110;-1.706;2023-02-15T05:00:36;29.20;;;18.90;;
11034;SDS011;5571;48.110;-1.706;2023-02-15T05:03:02;24.40;;;17.53;;
11034;SDS011;5571;48.110;-1.706;2023-02-15T05:05:28;27.97;;;18.70;;
11034;SDS011;5571;48.110;-1.706;2023-02-15T05:07:53;24.13;;;17.70;;
11034;SDS011;5571;48.110;-1.706;2023-02-15T05:10:19;27.43;;;18.60;;
11034;SDS011;5571;48.110;-1.706;2023-02-15T05:12:45;24.80;;;19.03;;
11034;SDS011;5571;48.110;-1.706;2023-02-15T05:15:11;26.73;;;17.97;;
11034;SDS011;5571;48.110;-1.706;2023-02-15T05:17:36;28.47;;;18.80;;
11034;SDS011;5571;48.110;-1.706;2023-02-15T05:20:02;25.70;;;17.83;;
11034;SDS011;5571;48.110;-1.706;2023-02-15T05:22:28;24.37;;;18.43;;
11034;SDS011;5571;48.110;-1.706;2023-02-15T05:24:54;22.80;;;16.87;;
11034;SDS011;5571;48.110;-1.706;2023-02-15T05:27:49;23.00;;;16.60;;
11034;SDS011;5571;48.110;-1.706;2023-02-15T05:30:33;25.07;;;18.00;;
11034;SDS011;5571;48.110;-1.706;2023-02-15T05:32:59;22.53;;;16.20;;
11034;SDS011;5571;48.110;-1.706;2023-02-15T05:35:24;23.47;;;17.10;;
11034;SDS011;5571;48.110;-1.706;2023-02-15T05:37:50;24.30;;;17.40;;
11034;SDS011;5571;48.110;-1.706;2023-02-15T05:40:16;23.50;;;16.80;;
11034;SDS011;5571;48.110;-1.706;2023-02-15T05:42:41;26.10;;;16.90;;
11034;SDS011;5571;48.110;-1.706;2023-02-15T05:45:07;23.50;;;17.17;;
11034;SDS011;5571;48.110;-1.706;2023-02-15T05:47:33;24.07;;;16.97;;
11034;SDS011;5571;48.110;-1.706;2023-02-15T05:49:59;23.33;;;17.40;;
11034;SDS011;5571;48.110;-1.706;2023-02-15T05:52:24;22.03;;;16.50;;
11034;SDS011;5571;48.110;-1.706;2023-02-15T05:54:50;21.13;;;16.17;;
11034;SDS011;5571;48.110;-1.706;2023-02-15T05:57:16;25.03;;;17.23;;
11034;SDS011;5571;48.110;-1.706;2023-02-15T05:59:41;21.27;;;16.27;;
11034;SDS011;5571;48.110;-1.706;2023-02-15T06:02:07;19.70;;;15.53;;
11034;SDS011;5571;48.110;-1.706;2023-02-15T06:04:32;21.07;;;16.07;;
11034;SDS011;5571;48.110;-1.706;2023-02-15T06:06:58;24.47;;;16.97;;
11034;SDS011;5571;48.110;-1.706;2023-02-15T06:09:24;25.27;;;16.60;;
11034;SDS011;5571;48.110;-1.706;2023-02-15T06:11:49;23.63;;;16.70;;
11034;SDS011;5571;48.110;-1.706;2023-02-15T06:14:15;23.23;;;16.20;;
11034;SDS011;5571;48.110;-1.706;2023-02-15T06:16:41;22.40;;;15.80;;
11034;SDS011;5571;48.110;-1.706;2023-02-15T06:19:06;23.00;;;16.97;;
11034;SDS011;5571;48.110;-1.706;2023-02-15T06:21:32;23.40;;;16.50;;
11034;SDS011;5571;48.110;-1.706;2023-02-15T06:23:57;20.20;;;15.00;;
11034;SDS011;5571;48.110;-1.706;2023-02-15T06:26:23;22.73;;;16.77;;
11034;SDS011;5571;48.110;-1.706;2023-02-15T06:28:49;22.77;;;15.83;;
11034;SDS011;5571;48.110;-1.706;2023-02-15T06:31:14;33.07;;;17.00;;
11034;SDS011;5571;48.110;-1.706;2023-02-15T06:33:40;23.13;;;17.17;;
11034;SDS011;5571;48.110;-1.706;2023-02-15T06:36:06;23.47;;;16.60;;
11034;SDS011;5571;48.110;-1.706;2023-02-15T06:38:32;20.30;;;15.57;;
11034;SDS011;5571;48.110;-1.706;2023-02-15T06:40:57;23.17;;;15.47;;
11034;SDS011;5571;48.110;-1.706;2023-02-15T06:43:23;24.73;;;17.40;;
11034;SDS011;5571;48.110;-1.706;2023-02-15T06:45:49;25.53;;;18.03;;
11034;SDS011;5571;48.110;-1.706;2023-02-15T06:48:14;23.20;;;16.77;;
11034;SDS011;5571;48.110;-1.706;2023-02-15T06:50:40;23.47;;;16.63;;
11034;SDS011;5571;48.110;-1.706;2023-02-15T06:53:06;24.90;;;17.43;;
11034;SDS011;5571;48.110;-1.706;2023-02-15T06:55:31;24.30;;;16.97;;
11034;SDS011;5571;48.110;-1.706;2023-02-15T06:57:57;23.07;;;16.97;;
11034;SDS011;5571;48.110;-1.706;2023-02-15T07:00:22;24.50;;;17.00;;
11034;SDS011;5571;48.110;-1.706;2023-02-15T07:02:54;25.83;;;16.23;;
11034;SDS011;5571;48.110;-1.706;2023-02-15T07:05:24;22.43;;;17.00;;
11034;SDS011;5571;48.110;-1.706;2023-02-15T07:07:55;20.57;;;15.90;;
11034;SDS011;5571;48.110;-1.706;2023-02-15T07:10:21;27.13;;;17.57;;
11034;SDS011;5571;48.110;-1.706;2023-02-15T07:12:47;22.17;;;16.60;;
11034;SDS011;5571;48.110;-1.706;2023-02-15T07:15:14;26.13;;;18.47;;
11034;SDS011;5571;48.110;-1.706;2023-02-15T07:17:41;22.53;;;17.67;;
11034;SDS011;5571;48.110;-1.706;2023-02-15T07:20:14;25.87;;;17.83;;
11034;SDS011;5571;48.110;-1.706;2023-02-15T07:22:49;25.13;;;17.40;;
11034;SDS011;5571;48.110;-1.706;2023-02-15T07:25:15;22.03;;;16.83;;
11034;SDS011;5571;48.110;-1.706;2023-02-15T07:27:42;26.03;;;16.87;;
11034;SDS011;5571;48.110;-1.706;2023-02-15T07:30:10;26.53;;;16.73;;
11034;SDS011;5571;48.110;-1.706;2023-02-15T07:32:37;25.27;;;17.63;;
11034;SDS011;5571;48.110;-1.706;2023-02-15T07:35:23;25.77;;;16.20;;
11034;SDS011;5571;48.110;-1.706;2023-02-15T07:37:49;23.80;;;17.10;;
11034;SDS011;5571;48.110;-1.706;2023-02-15T07:40:15;21.60;;;16.30;;
11034;SDS011;5571;48.110;-1.706;2023-02-15T07:42:40;29.53;;;17.70;;
11034;SDS011;5571;48.110;-1.706;2023-02-15T07:45:06;23.67;;;17.10;;
11034;SDS011;5571;48.110;-1.706;2023-02-15T07:47:32;23.87;;;17.30;;
11034;SDS011;5571;48.110;-1.706;2023-02-15T07:49:58;27.57;;;17.73;;
11034;SDS011;5571;48.110;-1.706;2023-02-15T07:52:25;25.03;;;17.97;;
11034;SDS011;5571;48.110;-1.706;2023-02-15T07:54:50;26.57;;;16.83;;
11034;SDS011;5571;48.110;-1.706;2023-02-15T07:57:16;30.30;;;16.90;;
11034;SDS011;5571;48.110;-1.706;2023-02-15T07:59:41;25.67;;;17.37;;
11034;SDS011;5571;48.110;-1.706;2023-02-15T08:02:10;25.10;;;17.37;;
11034;SDS011;5571;48.110;-1.706;2023-02-15T08:04:36;23.40;;;17.73;;
11034;SDS011;5571;48.110;-1.706;2023-02-15T08:07:02;27.30;;;17.80;;
11034;SDS011;5571;48.110;-1.706;2023-02-15T08:09:27;28.40;;;17.17;;
11034;SDS011;5571;48.110;-1.706;2023-02-15T08:11:53;24.40;;;17.40;;
11034;SDS011;5571;48.110;-1.706;2023-02-15T08:14:20;26.67;;;17.13;;
11034;SDS011;5571;48.110;-1.706;2023-02-15T08:19:19;28.17;;;17.80;;
11034;SDS011;5571;48.110;-1.706;2023-02-15T08:21:52;23.57;;;17.27;;
11034;SDS011;5571;48.110;-1.706;2023-02-15T08:24:22;26.50;;;16.97;;
11034;SDS011;5571;48.110;-1.706;2023-02-15T08:26:49;22.83;;;16.47;;
11034;SDS011;5571;48.110;-1.706;2023-02-15T08:29:17;27.77;;;17.73;;
11034;SDS011;5571;48.110;-1.706;2023-02-15T08:31:48;29.73;;;17.40;;
11034;SDS011;5571;48.110;-1.706;2023-02-15T08:34:15;28.37;;;17.10;;
11034;SDS011;5571;48.110;-1.706;2023-02-15T08:36:43;21.87;;;16.47;;
11034;SDS011;5571;48.110;-1.706;2023-02-15T08:39:12;27.33;;;17.53;;
11034;SDS011;5571;48.110;-1.706;2023-02-15T08:41:40;23.57;;;17.83;;
11034;SDS011;5571;48.110;-1.706;2023-02-15T08:44:07;21.73;;;15.80;;
11034;SDS011;5571;48.110;-1.706;2023-02-15T08:46:35;25.63;;;16.57;;
11034;SDS011;5571;48.110;-1.706;2023-02-15T08:49:03;23.77;;;17.03;;
11034;SDS011;5571;48.110;-1.706;2023-02-15T08:51:30;22.90;;;17.00;;
11034;SDS011;5571;48.110;-1.706;2023-02-15T08:53:59;25.20;;;17.57;;
11034;SDS011;5571;48.110;-1.706;2023-02-15T08:56:28;25.20;;;16.90;;
11034;SDS011;5571;48.110;-1.706;2023-02-15T08:58:57;22.83;;;16.40;;
11034;SDS011;5571;48.110;-1.706;2023-02-15T09:01:27;24.33;;;16.60;;
11034;SDS011;5571;48.110;-1.706;2023-02-15T09:03:55;25.70;;;16.77;;
11034;SDS011;5571;48.110;-1.706;2023-02-15T09:06:22;20.10;;;16.07;;
11034;SDS011;5571;48.110;-1.706;2023-02-15T09:08:49;28.37;;;18.23;;
11034;SDS011;5571;48.110;-1.706;2023-02-15T09:13:54;31.37;;;20.10;;
11034;SDS011;5571;48.110;-1.706;2023-02-15T09:16:22;30.50;;;19.90;;
11034;SDS011;5571;48.110;-1.706;2023-02-15T09:18:49;29.37;;;19.47;;
11034;SDS011;5571;48.110;-1.706;2023-02-15T09:21:17;34.33;;;18.60;;
11034;SDS011;5571;48.110;-1.706;2023-02-15T09:23:45;29.73;;;18.93;;
11034;SDS011;5571;48.110;-1.706;2023-02-15T09:26:13;30.37;;;17.83;;
11034;SDS011;5571;48.110;-1.706;2023-02-15T09:28:40;28.60;;;17.37;;
11034;SDS011;5571;48.110;-1.706;2023-02-15T09:33:40;25.93;;;18.40;;
11034;SDS011;5571;48.110;-1.706;2023-02-15T09:39:07;23.77;;;17.40;;
11034;SDS011;5571;48.110;-1.706;2023-02-15T09:52:45;21.70;;;15.43;;
11034;SDS011;5571;48.110;-1.706;2023-02-15T10:14:30;19.93;;;15.57;;
11034;SDS011;5571;48.110;-1.706;2023-02-15T10:27:46;23.73;;;16.80;;
11034;SDS011;5571;48.110;-1.706;2023-02-15T10:30:14;22.50;;;16.43;;
11034;SDS011;5571;48.110;-1.706;2023-02-15T10:32:43;22.17;;;16.40;;
11034;SDS011;5571;48.110;-1.706;2023-02-15T10:41:21;26.13;;;16.13;;
11034;SDS011;5571;48.110;-1.706;2023-02-15T10:52:19;22.67;;;17.53;;
11034;SDS011;5571;48.110;-1.706;2023-02-15T11:03:27;21.23;;;15.90;;
11034;SDS011;5571;48.110;-1.706;2023-02-15T11:05:36;25.50;;;15.97;;
11034;SDS011;5571;48.110;-1.706;2023-02-15T11:08:10;25.00;;;15.27;;
11034;SDS011;5571;48.110;-1.706;2023-02-15T11:10:42;22.00;;;14.63;;
11034;SDS011;5571;48.110;-1.706;2023-02-15T11:13:22;18.67;;;13.97;;
11034;SDS011;5571;48.110;-1.706;2023-02-15T11:15:56;23.57;;;13.83;;
11034;SDS011;5571;48.110;-1.706;2023-02-15T11:18:28;18.27;;;14.00;;
11034;SDS011;5571;48.110;-1.706;2023-02-15T11:21:42;23.53;;;13.93;;
11034;SDS011;5571;48.110;-1.706;2023-02-15T11:24:07;21.97;;;14.93;;
11034;SDS011;5571;48.110;-1.706;2023-02-15T11:26:43;18.87;;;13.00;;
11034;SDS011;5571;48.110;-1.706;2023-02-15T11:31:51;18.93;;;13.20;;
11034;SDS011;5571;48.110;-1.706;2023-02-15T11:34:34;15.87;;;13.77;;
11034;SDS011;5571;48.110;-1.706;2023-02-15T11:37:13;16.63;;;14.03;;
11034;SDS011;5571;48.110;-1.706;2023-02-15T11:39:44;24.63;;;16.20;;
11034;SDS011;5571;48.110;-1.706;2023-02-15T11:42:17;18.57;;;13.63;;
11034;SDS011;5571;48.110;-1.706;2023-02-15T11:47:15;24.27;;;15.43;;
11034;SDS011;5571;48.110;-1.706;2023-02-15T11:49:41;20.40;;;14.80;;
11034;SDS011;5571;48.110;-1.706;2023-02-15T11:52:07;21.83;;;15.30;;
11034;SDS011;5571;48.110;-1.706;2023-02-15T11:54:46;24.00;;;14.67;;
11034;SDS011;5571;48.110;-1.706;2023-02-15T11:57:34;20.27;;;14.53;;
11034;SDS011;5571;48.110;-1.706;2023-02-15T12:02:50;22.07;;;15.80;;
11034;SDS011;5571;48.110;-1.706;2023-02-15T12:05:19;25.50;;;14.57;;
11034;SDS011;5571;48.110;-1.706;2023-02-15T12:08:21;19.87;;;14.10;;
11034;SDS011;5571;48.110;-1.706;2023-02-15T12:10:51;19.13;;;14.93;;
11034;SDS011;5571;48.110;-1.706;2023-02-15T12:13:32;20.63;;;14.33;;
11034;SDS011;5571;48.110;-1.706;2023-02-15T12:15:58;19.73;;;13.97;;
11034;SDS011;5571;48.110;-1.706;2023-02-15T12:18:40;16.93;;;13.67;;
11034;SDS011;5571;48.110;-1.706;2023-02-15T12:21:51;18.90;;;13.43;;
11034;SDS011;5571;48.110;-1.706;2023-02-15T12:24:03;23.73;;;14.40;;
11034;SDS011;5571;48.110;-1.706;2023-02-15T12:26:37;21.17;;;13.87;;
11034;SDS011;5571;48.110;-1.706;2023-02-15T12:29:21;17.10;;;13.87;;
11034;SDS011;5571;48.110;-1.706;2023-02-15T12:31:50;17.60;;;14.07;;
11034;SDS011;5571;48.110;-1.706;2023-02-15T12:34:22;18.90;;;13.93;;
11034;SDS011;5571;48.110;-1.706;2023-02-15T12:36:54;18.17;;;13.57;;
11034;SDS011;5571;48.110;-1.706;2023-02-15T12:39:26;15.80;;;13.47;;
11034;SDS011;5571;48.110;-1.706;2023-02-15T12:41:57;16.33;;;13.97;;
11034;SDS011;5571;48.110;-1.706;2023-02-15T12:44:25;18.57;;;14.43;;
11034;SDS011;5571;48.110;-1.706;2023-02-15T12:47:04;19.17;;;14.50;;
11034;SDS011;5571;48.110;-1.706;2023-02-15T12:51:59;15.03;;;13.40;;
11034;SDS011;5571;48.110;-1.706;2023-02-15T12:54:31;17.53;;;13.07;;
11034;SDS011;5571;48.110;-1.706;2023-02-15T12:57:12;15.17;;;12.47;;
11034;SDS011;5571;48.110;-1.706;2023-02-15T12:59:54;18.03;;;12.80;;
11034;SDS011;5571;48.110;-1.706;2023-02-15T13:05:05;19.17;;;14.07;;
11034;SDS011;5571;48.110;-1.706;2023-02-15T13:07:50;17.33;;;13.17;;
11034;SDS011;5571;48.110;-1.706;2023-02-15T13:12:53;15.63;;;12.87;;
11034;SDS011;5571;48.110;-1.706;2023-02-15T13:15:35;16.10;;;12.20;;
11034;SDS011;5571;48.110;-1.706;2023-02-15T13:18:10;17.37;;;12.33;;
11034;SDS011;5571;48.110;-1.706;2023-02-15T13:20:40;14.80;;;11.73;;
11034;SDS011;5571;48.110;-1.706;2023-02-15T13:23:20;17.87;;;13.03;;
11034;SDS011;5571;48.110;-1.706;2023-02-15T13:25:46;15.43;;;12.30;;
11034;SDS011;5571;48.110;-1.706;2023-02-15T13:28:15;16.80;;;12.53;;
11034;SDS011;5571;48.110;-1.706;2023-02-15T13:30:44;16.73;;;12.63;;
11034;SDS011;5571;48.110;-1.706;2023-02-15T13:33:31;16.90;;;13.10;;
11034;SDS011;5571;48.110;-1.706;2023-02-15T13:36:09;19.20;;;12.93;;
11034;SDS011;5571;48.110;-1.706;2023-02-15T13:41:46;16.17;;;12.17;;
11034;SDS011;5571;48.110;-1.706;2023-02-15T13:44:20;16.67;;;12.67;;
11034;SDS011;5571;48.110;-1.706;2023-02-15T13:52:23;13.57;;;11.70;;
11034;SDS011;5571;48.110;-1.706;2023-02-15T13:57:53;13.52;;;12.13;;
11034;SDS011;5571;48.110;-1.706;2023-02-15T14:17:11;14.48;;;11.77;;
11034;SDS011;5571;48.110;-1.706;2023-02-15T14:19:45;13.02;;;11.60;;
11034;SDS011;5571;48.110;-1.706;2023-02-15T14:22:31;12.98;;;11.02;;
11034;SDS011;5571;48.110;-1.706;2023-02-15T14:27:52;16.90;;;11.20;;
11034;SDS011;5571;48.110;-1.706;2023-02-15T14:32:49;14.90;;;11.90;;
11034;SDS011;5571;48.110;-1.706;2023-02-15T14:35:18;13.53;;;10.77;;
11034;SDS011;5571;48.110;-1.706;2023-02-15T14:49:31;20.77;;;11.55;;
11034;SDS011;5571;48.110;-1.706;2023-02-15T14:52:09;13.15;;;11.13;;
11034;SDS011;5571;48.110;-1.706;2023-02-15T15:02:25;16.33;;;11.40;;
11034;SDS011;5571;48.110;-1.706;2023-02-15T15:07:55;13.67;;;11.57;;
11034;SDS011;5571;48.110;-1.706;2023-02-15T15:12:58;17.57;;;11.57;;
11034;SDS011;5571;48.110;-1.706;2023-02-15T15:15:56;17.33;;;11.97;;
11034;SDS011;5571;48.110;-1.706;2023-02-15T15:18:42;17.98;;;11.18;;
11034;SDS011;5571;48.110;-1.706;2023-02-15T15:21:08;17.17;;;11.57;;
11034;SDS011;5571;48.110;-1.706;2023-02-15T15:28:54;12.82;;;11.35;;
11034;SDS011;5571;48.110;-1.706;2023-02-15T15:34:21;14.90;;;11.37;;
11034;SDS011;5571;48.110;-1.706;2023-02-15T15:40:30;16.70;;;11.20;;
11034;SDS011;5571;48.110;-1.706;2023-02-15T15:48:36;14.30;;;11.17;;
11034;SDS011;5571;48.110;-1.706;2023-02-15T15:51:39;18.17;;;11.87;;
11034;SDS011;5571;48.110;-1.706;2023-02-15T15:53:56;13.33;;;10.80;;
11034;SDS011;5571;48.110;-1.706;2023-02-15T15:56:26;16.52;;;11.35;;
11034;SDS011;5571;48.110;-1.706;2023-02-15T15:58:57;14.70;;;11.23;;
11034;SDS011;5571;48.110;-1.706;2023-02-15T16:01:29;15.60;;;10.43;;
11034;SDS011;5571;48.110;-1.706;2023-02-15T16:03:59;15.65;;;10.45;;
11034;SDS011;5571;48.110;-1.706;2023-02-15T16:06:29;15.33;;;11.40;;
11034;SDS011;5571;48.110;-1.706;2023-02-15T16:09:10;16.77;;;11.20;;
11034;SDS011;5571;48.110;-1.706;2023-02-15T16:11:35;21.10;;;11.20;;
11034;SDS011;5571;48.110;-1.706;2023-02-15T16:14:08;17.57;;;11.13;;
11034;SDS011;5571;48.110;-1.706;2023-02-15T16:16:46;18.40;;;11.83;;
11034;SDS011;5571;48.110;-1.706;2023-02-15T16:19:18;14.10;;;11.90;;
11034;SDS011;5571;48.110;-1.706;2023-02-15T16:21:49;19.10;;;12.33;;
11034;SDS011;5571;48.110;-1.706;2023-02-15T16:27:10;19.40;;;12.83;;
11034;SDS011;5571;48.110;-1.706;2023-02-15T16:33:10;16.53;;;12.90;;
11034;SDS011;5571;48.110;-1.706;2023-02-15T16:41:11;20.17;;;13.27;;
11034;SDS011;5571;48.110;-1.706;2023-02-15T16:43:40;20.00;;;12.30;;
11034;SDS011;5571;48.110;-1.706;2023-02-15T16:46:12;19.13;;;12.43;;
11034;SDS011;5571;48.110;-1.706;2023-02-15T16:48:46;16.90;;;12.77;;
11034;SDS011;5571;48.110;-1.706;2023-02-15T16:51:23;14.53;;;12.33;;
11034;SDS011;5571;48.110;-1.706;2023-02-15T16:53:51;20.03;;;12.93;;
11034;SDS011;5571;48.110;-1.706;2023-02-15T16:56:29;20.47;;;13.03;;
11034;SDS011;5571;48.110;-1.706;2023-02-15T16:58:56;19.83;;;13.23;;
11034;SDS011;5571;48.110;-1.706;2023-02-15T17:01:23;15.77;;;13.07;;
11034;SDS011;5571;48.110;-1.706;2023-02-15T17:06:57;18.70;;;14.53;;
11034;SDS011;5571;48.110;-1.706;2023-02-15T17:09:50;19.33;;;13.50;;
11034;SDS011;5571;48.110;-1.706;2023-02-15T17:12:43;21.80;;;13.43;;
11034;SDS011;5571;48.110;-1.706;2023-02-15T17:20:37;21.93;;;13.27;;
11034;SDS011;5571;48.110;-1.706;2023-02-15T17:23:06;20.23;;;13.03;;
11034;SDS011;5571;48.110;-1.706;2023-02-15T17:25:56;23.43;;;13.67;;
11034;SDS011;5571;48.110;-1.706;2023-02-15T17:28:24;22.23;;;13.17;;
11034;SDS011;5571;48.110;-1.706;2023-02-15T17:30:53;16.87;;;12.93;;
11034;SDS011;5571;48.110;-1.706;2023-02-15T17:38:39;23.53;;;16.23;;
11034;SDS011;5571;48.110;-1.706;2023-02-15T17:41:24;21.27;;;15.97;;
11034;SDS011;5571;48.110;-1.706;2023-02-15T17:43:50;26.13;;;17.43;;
11034;SDS011;5571;48.110;-1.706;2023-02-15T17:46:16;24.13;;;18.03;;
11034;SDS011;5571;48.110;-1.706;2023-02-15T17:48:47;26.03;;;18.23;;
11034;SDS011;5571;48.110;-1.706;2023-02-15T17:51:14;28.17;;;17.70;;
11034;SDS011;5571;48.110;-1.706;2023-02-15T17:53:42;24.93;;;17.47;;
11034;SDS011;5571;48.110;-1.706;2023-02-15T17:56:26;29.27;;;16.93;;
11034;SDS011;5571;48.110;-1.706;2023-02-15T17:58:52;26.60;;;16.07;;
11034;SDS011;5571;48.110;-1.706;2023-02-15T18:01:18;29.63;;;16.63;;
11034;SDS011;5571;48.110;-1.706;2023-02-15T18:04:04;21.63;;;15.40;;
11034;SDS011;5571;48.110;-1.706;2023-02-15T18:06:54;24.23;;;15.67;;
11034;SDS011;5571;48.110;-1.706;2023-02-15T18:09:39;26.70;;;17.73;;
11034;SDS011;5571;48.110;-1.706;2023-02-15T18:12:27;29.70;;;18.33;;
11034;SDS011;5571;48.110;-1.706;2023-02-15T18:14:55;24.70;;;16.17;;
11034;SDS011;5571;48.110;-1.706;2023-02-15T18:17:29;22.63;;;16.10;;
11034;SDS011;5571;48.110;-1.706;2023-02-15T18:22:52;24.20;;;13.80;;
11034;SDS011;5571;48.110;-1.706;2023-02-15T18:25:20;24.73;;;14.63;;
11034;SDS011;5571;48.110;-1.706;2023-02-15T18:27:48;19.10;;;14.13;;
11034;SDS011;5571;48.110;-1.706;2023-02-15T18:30:17;21.43;;;12.43;;
11034;SDS011;5571;48.110;-1.706;2023-02-15T18:32:44;21.80;;;13.50;;
11034;SDS011;5571;48.110;-1.706;2023-02-15T18:35:15;24.93;;;12.77;;
11034;SDS011;5571;48.110;-1.706;2023-02-15T18:37:43;18.27;;;13.07;;
11034;SDS011;5571;48.110;-1.706;2023-02-15T18:40:14;23.37;;;13.20;;
11034;SDS011;5571;48.110;-1.706;2023-02-15T18:42:41;18.77;;;13.30;;